• Join FlightAware (Why Join?)
  • Login
  • US Flag 
04:11AM EST


 

Airport Tracker/Info


-or-


 

Live Flight TrackerFlight Track Log ✈ UAL4543 ✈ 10-Sep-2013 ✈ KEWR - KDSM

Flight Track Log - Related Links

Times and Time Zones

All times are in EDT time to prevent confusion due to time zone crossing. See the UAL4543 flight status page for this flight to view local times or setup timezone preferences in your user account.

Time Position Orientation Groundspeed Altitude Reporting Facility
EDT Latitude Longitude Course Direction KTS MPH feet Rate Location/Type
09:14PM 40.6500 -74.1833 255° West 168 193 1,500  Level New York TRACON
09:15PM 40.6500 -74.2333 270° West 241 277 2,900 2,100 Climbing New York TRACON
09:16PM 40.6667 -74.3167 285° West 256 295 5,800 2,520 Climbing New York TRACON
09:17PM 40.7630 -74.7237 303° West  Level Estimated
09:17PM 40.7000 -74.4167 294° West 265 305 8,300  Level New York TRACON
09:18PM 40.7802 -74.8626 270° West  Level Estimated
09:19PM 40.7972 -75.0016 255° West  Level Estimated
09:19PM 40.7669 -74.6425 291° West 317 365 12,600  Level New York Center
09:20PM 40.7986 -74.7514 291° West 322 371 14,300 1,500 Climbing New York Center
09:21PM 40.8342 -74.8739 291° West 340 391 15,700 1,380 Climbing New York Center
09:22PM 40.8567 -75.0044 283° West 360 414 17,100 1,200 Climbing New York Center
09:23PM 40.8372 -75.1375 259° West 367 422 18,200 1,200 Climbing New York Center
09:24PM 40.8203 -75.2572 259° West 373 429 19,600 1,380 Climbing New York Center
09:25PM 40.7961 -75.3925 257° West 373 429 21,000 1,200 Climbing New York Center
09:26PM 40.7756 -75.5419 260° West 373 429 22,100 1,380 Climbing New York Center
09:27PM 40.7542 -75.6583 256° West 373 429 23,800 1,500 Climbing New York Center
09:28PM 40.7361 -75.7939 260° West 373 429 25,100 1,320 Climbing New York Center
09:29PM 40.7181 -75.9239 260° West 373 429 26,500 1,380 Climbing New York Center
09:30PM 40.6933 -76.0589 256° West 373 429 27,900 1,380 Climbing New York Center
09:31PM 40.6681 -76.2019 257° West 373 429 29,300 1,500 Climbing New York Center
09:32PM 40.6761 -76.3394 274° West 362 417 30,900 1,620 Climbing New York Center
09:33PM 40.6950 -76.4669 281° West 362 417 32,600 1,680 Climbing New York Center
09:34PM 40.7142 -76.5892 282° West 357 411 34,300 1,500 Climbing New York Center
09:35PM 40.7336 -76.7031 283° West 338 389 35,600 840 Climbing New York Center
09:36PM 40.7483 -76.8222 279° West 333 383 36,000 180 Climbing New York Center
09:37PM 40.7686 -76.9528 282° West 345 397 36,000  Level New York Center
09:38PM 40.7883 -77.0944 280° West 370 426 36,000  Level New York Center
09:39PM 40.8097 -77.2364 281° West 384 442 36,000  Level New York Center
09:40PM 40.8294 -77.3697 281° West 396 456 36,000  Level New York Center
09:43PM 40.8800 -77.7353 280° West 422 486 36,000  Level Cleveland Center
09:44PM 40.9006 -77.8881 280° West 427 491 36,000  Level Cleveland Center
09:45PM 40.9206 -78.0383 280° West 427 491 36,000  Level Cleveland Center
09:46PM 40.9386 -78.1889 279° West 427 491 36,000  Level Cleveland Center
09:47PM 40.9583 -78.3450 280° West 427 491 36,000  Level Cleveland Center
09:48PM 40.9800 -78.4983 281° West 427 491 36,000  Level Cleveland Center
09:49PM 40.9994 -78.6517 280° West 427 491 36,000  Level Cleveland Center
09:50PM 41.0144 -78.8081 277° West 427 491 36,000  Level Cleveland Center
09:51PM 41.0333 -78.9592 279° West 427 491 36,000  Level Cleveland Center
09:52PM 41.0522 -79.1156 279° West 427 491 36,000  Level Cleveland Center
09:53PM 41.0686 -79.2722 278° West 427 491 36,000  Level Cleveland Center
09:54PM 41.0869 -79.4261 279° West 427 491 36,000  Level Cleveland Center
09:55PM 41.1050 -79.5772 279° West 427 491 36,000  Level Cleveland Center
09:56PM 41.1208 -79.7342 278° West 427 491 36,000  Level Cleveland Center
09:57PM 41.1367 -79.8911 278° West 427 491 36,000  Level Cleveland Center
09:58PM 41.1542 -80.0425 279° West 427 491 36,000  Level Cleveland Center
09:59PM 41.1714 -80.1969 278° West 422 486 36,000  Level Cleveland Center
10:00PM 41.1864 -80.3706 277° West 427 491 36,000  Level Cleveland Center
10:01PM 41.2033 -80.5253 278° West 434 499 36,000  Level Cleveland Center
10:02PM 41.2178 -80.6797 277° West 427 491 36,000  Level Cleveland Center
10:03PM 41.2342 -80.8400 278° West 427 491 36,000  Level Cleveland Center
10:04PM 41.2483 -80.9919 277° West 427 491 36,000  Level Cleveland Center
10:05PM 41.2644 -81.1494 278° West 427 491 36,000  Level Cleveland Center
10:06PM 41.2781 -81.3042 277° West 427 491 36,000  Level Cleveland Center
10:07PM 41.2958 -81.4481 279° West 427 491 36,000  Level Cleveland Center
10:08PM 41.3092 -81.6031 277° West 427 491 36,000  Level Cleveland Center
10:09PM 41.3244 -81.7611 277° West 432 497 36,000  Level Cleveland Center
10:10PM 41.3372 -81.9189 276° West 427 491 36,000  Level Cleveland Center
10:11PM 41.3519 -82.0742 277° West 427 491 36,000  Level Cleveland Center
10:12PM 41.3619 -82.2514 274° West 437 503 36,000  Level Cleveland Center
10:13PM 41.3719 -82.4122 275° West 437 503 36,000  Level Cleveland Center
10:14PM 41.3797 -82.5700 274° West 437 503 36,000  Level Cleveland Center
10:15PM 41.3894 -82.7308 275° West 437 503 36,000  Level Cleveland Center
10:16PM 41.3972 -82.8722 274° West 437 503 36,000  Level Cleveland Center
10:17PM 41.4064 -83.0306 274° West 437 503 36,000  Level Cleveland Center
10:18PM 41.4131 -83.2025 273° West 437 503 36,000  Level Cleveland Center
10:19PM 41.4197 -83.3578 273° West 437 503 36,000  Level Cleveland Center
10:20PM 41.4283 -83.5133 274° West 430 495 36,000  Level Cleveland Center
10:21PM 41.4367 -83.6689 274° West 425 489 36,000  Level Cleveland Center
10:22PM 41.4428 -83.8269 273° West 425 489 36,000  Level Cleveland Center
10:23PM 41.4508 -83.9853 274° West 425 489 36,000  Level Cleveland Center
10:24PM 41.4597 -84.1272 275° West 425 489 36,000  Level Chicago Center
10:25PM 41.4667 -84.2844 273° West 425 489 36,000  Level Chicago Center
10:26PM 41.4731 -84.4728 273° West 425 489 36,000  Level Chicago Center
10:27PM 41.4794 -84.6269 273° West 421 484 36,000  Level Chicago Center
10:28PM 41.4856 -84.7828 273° West 422 486 36,000  Level Chicago Center
10:29PM 41.4908 -84.9383 273° West 419 482 36,000  Level Chicago Center
10:30PM 41.4961 -85.0936 273° West 420 483 36,000  Level Chicago Center
10:31PM 41.5006 -85.2506 272° West 419 482 36,000  Level Chicago Center
10:32PM 41.5017 -85.4103 271° West 421 484 36,000  Level Chicago Center
10:33PM 41.5094 -85.5722 274° West 426 490 36,000  Level Chicago Center
10:34PM 41.5144 -85.7275 273° West 420 483 36,000  Level Chicago Center
10:35PM 41.5203 -85.8775 273° West 404 465 36,000  Level Chicago Center
10:36PM 41.5239 -86.0325 272° West 414 476 36,000  Level Chicago Center
10:37PM 41.5267 -86.1886 271° West 420 483 36,000  Level Chicago Center
10:38PM 41.5292 -86.3428 271° West 417 480 36,000  Level Chicago Center
10:39PM 41.5319 -86.4981 271° West 418 481 36,000  Level Chicago Center
10:40PM 41.5347 -86.6822 271° West 416 479 36,000  Level Chicago Center
10:41PM 41.5369 -86.8267 271° West 412 474 36,000  Level Chicago Center
10:42PM 41.5389 -86.9781 271° West 411 473 36,000  Level Chicago Center
10:43PM 41.5411 -87.1300 271° West 412 474 36,000  Level Chicago Center
10:44PM 41.5419 -87.2814 270° West 408 470 36,000  Level Chicago Center
10:45PM 41.5431 -87.4631 271° West 408 470 36,000  Level Chicago Center
10:46PM 41.5447 -87.6139 271° West 407 468 36,000  Level Chicago Center
10:47PM 41.5447 -87.7631 270° West 405 466 36,000  Level Chicago Center
10:48PM 41.5453 -87.9108 270° West 405 466 36,000  Level Chicago Center
10:49PM 41.5486 -88.0550 272° West 403 464 36,000  Level Chicago Center
10:50PM 41.5486 -88.2028 270° West 411 473 36,000  Level Chicago Center
10:51PM 41.5469 -88.3786 269° West 403 464 36,000  Level Chicago Center
10:52PM 41.5472 -88.5261 270° West 401 461 36,000  Level Chicago Center
10:53PM 41.5481 -88.6747 270° West 404 465 36,000  Level Chicago Center
10:54PM 41.5475 -88.8228 270° West 404 465 36,000  Level Chicago Center
10:55PM 41.5494 -88.9739 271° West 407 468 36,000  Level Chicago Center
10:56PM 41.5497 -89.1247 270° West 409 471 36,000  Level Chicago Center
10:57PM 41.5494 -89.2753 270° West 408 470 36,000  Level Chicago Center
10:58PM 41.5494 -89.4253 270° West 409 471 36,000  Level Chicago Center
10:59PM 41.5481 -89.5758 269° West 409 471 36,000  Level Chicago Center
11:00PM 41.5464 -89.7597 269° West 414 476 36,000  Level Chicago Center
11:01PM 41.5456 -89.9103 270° West 411 473 36,000  Level Chicago Center
11:02PM 41.5442 -90.0619 269° West 410 472 36,000  Level Chicago Center
11:03PM 41.5425 -90.2114 269° West 407 468 36,000  Level Chicago Center
11:04PM 41.5403 -90.3647 269° West 413 475 36,000  Level Chicago Center
11:05PM 41.5383 -90.5150 269° West 408 470 36,000  Level Chicago Center
11:06PM 41.5361 -90.6717 269° West 407 468 36,000  Level Chicago Center
11:07PM 41.5339 -90.8231 269° West 411 473 36,000  Level Chicago Center
11:08PM 41.5319 -90.9731 269° West 408 470 36,000  Level Chicago Center
11:09PM 41.5289 -91.1253 269° West 412 474 36,000  Level Chicago Center
11:10PM 41.5261 -91.2772 269° West 413 475 36,000  Level Chicago Center
11:11PM 41.5233 -91.4308 269° West 417 480 36,000 -60 Level Chicago Center
11:12PM 41.5200 -91.6136 269° West 414 476 35,900 -600 Descending Chicago Center
11:13PM 41.5206 -91.7653 270° West 412 474 34,800 -1,140 Descending Chicago Center
11:15PM 41.5233 -91.9161 271° West 410 472 33,700 -1,800 Descending Chicago Center
11:16PM 41.5244 -92.0686 271° West 412 474 31,200 -2,580 Descending Chicago Center
11:17PM 41.5269 -92.2200 271° West 412 474 28,500 -2,400 Descending Chicago Center
11:18PM 41.5283 -92.3772 271° West 419 482 26,400 -2,340 Descending Chicago Center
11:19PM 41.5292 -92.5358 270° West 426 490 23,800 -3,180 Descending Chicago Center
11:20PM 41.5311 -92.6836 271° West 407 468 20,000 -3,600 Descending Chicago Center
11:21PM 41.5319 -92.8331 270° West 397 457 16,600 -3,540 Descending Chicago Center
11:22PM 41.5389 -92.9692 274° West 376 433 12,900 -2,820 Descending Chicago Center
11:23PM 41.5483 -93.0864 276° West 321 369 11,000 -2,220 Descending Chicago Center
11:24PM 41.5586 -93.2075 277° West 275 316 8,400 -2,460 Descending Chicago Center
11:25PM 41.5661 -93.3008 276° West 257 296 6,100 -2,100 Descending Chicago Center
11:26PM 41.5733 -93.3911 276° West 249 287 4,200 -1,440 Descending Chicago Center
11:27PM 41.5808 -93.4775 277° West 245 282 3,200 -780 Descending Chicago Center
11:28PM 41.5850 -93.5508 274° West 227 261 2,700 -600 Descending Chicago Center
11:29PM 41.5667 -93.5989 243° Southwest 187 215 2,000 -780 Descending Chicago Center
11:30PM 41.5364 -93.6550 234° Southwest 136 157 1,000 -480 Descending Minneapolis Center
11:31PM 41.5183 -93.6886 234° Southwest 136 157 1,000  Level Minneapolis Center